sensor_id;sensor_type;location;lat;lon;timestamp;P1;durP1;ratioP1;P2;durP2;ratioP2
18340;SDS011;9296;48.084;16.352;2023-04-06T00:01:02;5.60;;;3.93;;
18340;SDS011;9296;48.084;16.352;2023-04-06T00:03:32;8.63;;;4.20;;
18340;SDS011;9296;48.084;16.352;2023-04-06T00:06:07;8.07;;;4.60;;
18340;SDS011;9296;48.084;16.352;2023-04-06T00:08:40;6.07;;;3.70;;
18340;SDS011;9296;48.084;16.352;2023-04-06T00:14:06;7.23;;;4.13;;
18340;SDS011;9296;48.084;16.352;2023-04-06T00:16:33;8.80;;;4.30;;
18340;SDS011;9296;48.084;16.352;2023-04-06T00:19:08;8.20;;;4.57;;
18340;SDS011;9296;48.084;16.352;2023-04-06T00:21:43;7.10;;;4.30;;
18340;SDS011;9296;48.084;16.352;2023-04-06T00:24:10;8.57;;;4.40;;
18340;SDS011;9296;48.084;16.352;2023-04-06T00:26:56;10.07;;;4.57;;
18340;SDS011;9296;48.084;16.352;2023-04-06T00:32:21;9.33;;;4.20;;
18340;SDS011;9296;48.084;16.352;2023-04-06T00:35:02;7.20;;;4.07;;
18340;SDS011;9296;48.084;16.352;2023-04-06T00:37:29;7.50;;;4.00;;
18340;SDS011;9296;48.084;16.352;2023-04-06T00:39:58;7.43;;;4.43;;
18340;SDS011;9296;48.084;16.352;2023-04-06T00:42:29;6.43;;;3.67;;
18340;SDS011;9296;48.084;16.352;2023-04-06T00:44:56;6.90;;;3.93;;
18340;SDS011;9296;48.084;16.352;2023-04-06T00:47:28;6.60;;;4.37;;
18340;SDS011;9296;48.084;16.352;2023-04-06T00:49:57;6.00;;;3.83;;
18340;SDS011;9296;48.084;16.352;2023-04-06T00:52:34;8.07;;;4.10;;
18340;SDS011;9296;48.084;16.352;2023-04-06T00:55:15;7.13;;;3.93;;
18340;SDS011;9296;48.084;16.352;2023-04-06T00:57:42;7.83;;;4.03;;
18340;SDS011;9296;48.084;16.352;2023-04-06T01:00:18;9.60;;;4.27;;
18340;SDS011;9296;48.084;16.352;2023-04-06T01:02:54;6.37;;;3.93;;
18340;SDS011;9296;48.084;16.352;2023-04-06T01:05:22;6.03;;;3.80;;
18340;SDS011;9296;48.084;16.352;2023-04-06T01:07:52;6.00;;;4.20;;
18340;SDS011;9296;48.084;16.352;2023-04-06T01:10:23;7.23;;;4.10;;
18340;SDS011;9296;48.084;16.352;2023-04-06T01:12:51;6.93;;;3.93;;
18340;SDS011;9296;48.084;16.352;2023-04-06T01:15:27;7.47;;;4.43;;
18340;SDS011;9296;48.084;16.352;2023-04-06T01:17:56;6.43;;;4.10;;
18340;SDS011;9296;48.084;16.352;2023-04-06T01:20:24;7.17;;;4.70;;
18340;SDS011;9296;48.084;16.352;2023-04-06T01:22:55;7.63;;;4.40;;
18340;SDS011;9296;48.084;16.352;2023-04-06T01:25:22;6.90;;;3.83;;
18340;SDS011;9296;48.084;16.352;2023-04-06T01:28:03;6.37;;;4.07;;
18340;SDS011;9296;48.084;16.352;2023-04-06T01:30:33;6.17;;;3.87;;
18340;SDS011;9296;48.084;16.352;2023-04-06T01:33:09;7.40;;;4.00;;
18340;SDS011;9296;48.084;16.352;2023-04-06T01:35:37;8.40;;;4.23;;
18340;SDS011;9296;48.084;16.352;2023-04-06T01:38:11;7.23;;;4.20;;
18340;SDS011;9296;48.084;16.352;2023-04-06T01:40:38;8.03;;;4.10;;
18340;SDS011;9296;48.084;16.352;2023-04-06T01:43:05;5.50;;;3.60;;
18340;SDS011;9296;48.084;16.352;2023-04-06T01:45:35;6.83;;;4.30;;
18340;SDS011;9296;48.084;16.352;2023-04-06T01:48:16;6.67;;;4.00;;
18340;SDS011;9296;48.084;16.352;2023-04-06T01:50:44;5.80;;;4.00;;
18340;SDS011;9296;48.084;16.352;2023-04-06T01:53:13;6.33;;;3.70;;
18340;SDS011;9296;48.084;16.352;2023-04-06T01:55:40;8.73;;;4.37;;
18340;SDS011;9296;48.084;16.352;2023-04-06T01:58:10;7.93;;;4.27;;
18340;SDS011;9296;48.084;16.352;2023-04-06T02:00:37;5.37;;;3.50;;
18340;SDS011;9296;48.084;16.352;2023-04-06T02:03:05;7.47;;;4.07;;
18340;SDS011;9296;48.084;16.352;2023-04-06T02:05:35;6.20;;;3.60;;
18340;SDS011;9296;48.084;16.352;2023-04-06T02:08:03;6.80;;;3.97;;
18340;SDS011;9296;48.084;16.352;2023-04-06T02:10:45;8.20;;;3.77;;
18340;SDS011;9296;48.084;16.352;2023-04-06T02:13:12;6.77;;;4.10;;
18340;SDS011;9296;48.084;16.352;2023-04-06T02:15:40;6.57;;;3.63;;
18340;SDS011;9296;48.084;16.352;2023-04-06T02:18:08;7.73;;;4.03;;
18340;SDS011;9296;48.084;16.352;2023-04-06T02:20:35;5.73;;;3.80;;
18340;SDS011;9296;48.084;16.352;2023-04-06T02:23:05;6.37;;;4.07;;
18340;SDS011;9296;48.084;16.352;2023-04-06T02:25:48;6.13;;;3.83;;
18340;SDS011;9296;48.084;16.352;2023-04-06T02:28:15;5.73;;;3.70;;
18340;SDS011;9296;48.084;16.352;2023-04-06T02:30:46;9.70;;;4.27;;
18340;SDS011;9296;48.084;16.352;2023-04-06T02:35:55;6.87;;;4.20;;
18340;SDS011;9296;48.084;16.352;2023-04-06T02:38:56;5.40;;;3.97;;
18340;SDS011;9296;48.084;16.352;2023-04-06T02:41:15;6.43;;;3.67;;
18340;SDS011;9296;48.084;16.352;2023-04-06T02:43:56;7.00;;;3.80;;
18340;SDS011;9296;48.084;16.352;2023-04-06T02:46:23;8.77;;;3.90;;
18340;SDS011;9296;48.084;16.352;2023-04-06T02:48:51;7.60;;;3.90;;
18340;SDS011;9296;48.084;16.352;2023-04-06T02:51:27;6.90;;;4.20;;
18340;SDS011;9296;48.084;16.352;2023-04-06T02:54:08;6.97;;;4.20;;
18340;SDS011;9296;48.084;16.352;2023-04-06T02:59:22;8.20;;;4.33;;
18340;SDS011;9296;48.084;16.352;2023-04-06T03:01:49;5.43;;;3.67;;
18340;SDS011;9296;48.084;16.352;2023-04-06T03:04:19;5.30;;;3.50;;
18340;SDS011;9296;48.084;16.352;2023-04-06T03:06:47;6.03;;;4.10;;
18340;SDS011;9296;48.084;16.352;2023-04-06T03:09:17;5.83;;;3.80;;
18340;SDS011;9296;48.084;16.352;2023-04-06T03:11:44;5.17;;;3.90;;
18340;SDS011;9296;48.084;16.352;2023-04-06T03:17:06;6.53;;;3.83;;
18340;SDS011;9296;48.084;16.352;2023-04-06T03:19:33;6.50;;;3.87;;
18340;SDS011;9296;48.084;16.352;2023-04-06T03:22:01;7.40;;;3.90;;
18340;SDS011;9296;48.084;16.352;2023-04-06T03:24:31;7.77;;;4.27;;
18340;SDS011;9296;48.084;16.352;2023-04-06T03:26:59;6.60;;;4.00;;
18340;SDS011;9296;48.084;16.352;2023-04-06T03:29:26;5.67;;;3.77;;
18340;SDS011;9296;48.084;16.352;2023-04-06T03:32:09;6.53;;;4.00;;
18340;SDS011;9296;48.084;16.352;2023-04-06T03:34:36;6.10;;;3.53;;
18340;SDS011;9296;48.084;16.352;2023-04-06T03:37:03;7.67;;;3.57;;
18340;SDS011;9296;48.084;16.352;2023-04-06T03:39:34;7.40;;;3.37;;
18340;SDS011;9296;48.084;16.352;2023-04-06T03:42:04;6.17;;;3.70;;
18340;SDS011;9296;48.084;16.352;2023-04-06T03:44:32;6.47;;;3.87;;
18340;SDS011;9296;48.084;16.352;2023-04-06T03:46:59;6.67;;;3.83;;
18340;SDS011;9296;48.084;16.352;2023-04-06T03:49:30;5.50;;;3.97;;
18340;SDS011;9296;48.084;16.352;2023-04-06T03:51:58;7.47;;;3.90;;
18340;SDS011;9296;48.084;16.352;2023-04-06T03:54:39;6.30;;;3.70;;
18340;SDS011;9296;48.084;16.352;2023-04-06T04:02:33;5.07;;;3.80;;
18340;SDS011;9296;48.084;16.352;2023-04-06T04:05:05;6.43;;;3.90;;
18340;SDS011;9296;48.084;16.352;2023-04-06T04:07:36;7.97;;;3.90;;
18340;SDS011;9296;48.084;16.352;2023-04-06T04:10:17;6.60;;;3.67;;
18340;SDS011;9296;48.084;16.352;2023-04-06T04:12:44;8.27;;;4.43;;
18340;SDS011;9296;48.084;16.352;2023-04-06T04:15:11;5.87;;;3.63;;
18340;SDS011;9296;48.084;16.352;2023-04-06T04:17:39;6.60;;;4.03;;
18340;SDS011;9296;48.084;16.352;2023-04-06T04:20:15;6.67;;;4.17;;
18340;SDS011;9296;48.084;16.352;2023-04-06T04:22:44;6.23;;;3.80;;
18340;SDS011;9296;48.084;16.352;2023-04-06T04:25:34;7.07;;;4.03;;
18340;SDS011;9296;48.084;16.352;2023-04-06T04:28:15;5.03;;;3.60;;
18340;SDS011;9296;48.084;16.352;2023-04-06T04:30:42;5.73;;;4.03;;
18340;SDS011;9296;48.084;16.352;2023-04-06T04:36:14;6.93;;;4.43;;
18340;SDS011;9296;48.084;16.352;2023-04-06T04:38:44;5.93;;;3.90;;
18340;SDS011;9296;48.084;16.352;2023-04-06T04:41:26;8.97;;;4.90;;
18340;SDS011;9296;48.084;16.352;2023-04-06T04:44:17;6.53;;;3.90;;
18340;SDS011;9296;48.084;16.352;2023-04-06T04:46:45;6.70;;;4.17;;
18340;SDS011;9296;48.084;16.352;2023-04-06T04:49:20;5.70;;;4.17;;
18340;SDS011;9296;48.084;16.352;2023-04-06T04:51:51;7.30;;;4.03;;
18340;SDS011;9296;48.084;16.352;2023-04-06T04:54:19;7.00;;;4.17;;
18340;SDS011;9296;48.084;16.352;2023-04-06T04:56:46;8.17;;;4.63;;
18340;SDS011;9296;48.084;16.352;2023-04-06T04:59:27;7.53;;;4.20;;
18340;SDS011;9296;48.084;16.352;2023-04-06T05:01:55;7.03;;;3.97;;
18340;SDS011;9296;48.084;16.352;2023-04-06T05:04:22;5.93;;;4.13;;
18340;SDS011;9296;48.084;16.352;2023-04-06T05:07:01;6.50;;;4.20;;
18340;SDS011;9296;48.084;16.352;2023-04-06T05:09:29;7.27;;;4.40;;
18340;SDS011;9296;48.084;16.352;2023-04-06T05:14:52;8.17;;;4.40;;
18340;SDS011;9296;48.084;16.352;2023-04-06T05:17:33;10.20;;;4.80;;
18340;SDS011;9296;48.084;16.352;2023-04-06T05:20:04;7.63;;;4.60;;
18340;SDS011;9296;48.084;16.352;2023-04-06T05:22:42;6.13;;;3.90;;
18340;SDS011;9296;48.084;16.352;2023-04-06T05:25:09;8.60;;;4.90;;
18340;SDS011;9296;48.084;16.352;2023-04-06T05:27:37;7.00;;;4.43;;
18340;SDS011;9296;48.084;16.352;2023-04-06T05:30:05;7.97;;;4.57;;
18340;SDS011;9296;48.084;16.352;2023-04-06T05:32:33;6.80;;;4.43;;
18340;SDS011;9296;48.084;16.352;2023-04-06T05:35:00;6.50;;;4.20;;
18340;SDS011;9296;48.084;16.352;2023-04-06T05:37:27;6.47;;;4.47;;
18340;SDS011;9296;48.084;16.352;2023-04-06T05:39:56;6.43;;;4.47;;
18340;SDS011;9296;48.084;16.352;2023-04-06T05:42:23;8.50;;;4.45;;
18340;SDS011;9296;48.084;16.352;2023-04-06T05:44:50;7.15;;;4.55;;
18340;SDS011;9296;48.084;16.352;2023-04-06T05:47:17;8.48;;;4.20;;
18340;SDS011;9296;48.084;16.352;2023-04-06T05:49:45;6.05;;;4.00;;
18340;SDS011;9296;48.084;16.352;2023-04-06T05:52:12;7.05;;;4.22;;
18340;SDS011;9296;48.084;16.352;2023-04-06T05:54:39;5.95;;;4.30;;
18340;SDS011;9296;48.084;16.352;2023-04-06T05:57:08;8.00;;;4.57;;
18340;SDS011;9296;48.084;16.352;2023-04-06T05:59:35;7.15;;;4.30;;
18340;SDS011;9296;48.084;16.352;2023-04-06T06:02:02;6.45;;;4.43;;
18340;SDS011;9296;48.084;16.352;2023-04-06T06:04:30;7.88;;;4.68;;
18340;SDS011;9296;48.084;16.352;2023-04-06T06:06:57;6.88;;;4.82;;
18340;SDS011;9296;48.084;16.352;2023-04-06T06:09:25;6.70;;;4.90;;
18340;SDS011;9296;48.084;16.352;2023-04-06T06:11:52;11.95;;;5.05;;
18340;SDS011;9296;48.084;16.352;2023-04-06T06:14:21;10.70;;;4.95;;
18340;SDS011;9296;48.084;16.352;2023-04-06T06:16:49;8.00;;;5.03;;
18340;SDS011;9296;48.084;16.352;2023-04-06T06:19:16;10.20;;;5.18;;
18340;SDS011;9296;48.084;16.352;2023-04-06T06:21:43;7.35;;;5.07;;
18340;SDS011;9296;48.084;16.352;2023-04-06T06:24:10;9.15;;;5.28;;
18340;SDS011;9296;48.084;16.352;2023-04-06T06:26:37;6.63;;;5.05;;
18340;SDS011;9296;48.084;16.352;2023-04-06T06:29:05;7.40;;;5.15;;
18340;SDS011;9296;48.084;16.352;2023-04-06T06:31:33;10.23;;;5.40;;
18340;SDS011;9296;48.084;16.352;2023-04-06T06:34:00;8.55;;;5.75;;
18340;SDS011;9296;48.084;16.352;2023-04-06T06:36:28;8.55;;;5.18;;
18340;SDS011;9296;48.084;16.352;2023-04-06T06:38:56;7.60;;;5.00;;
18340;SDS011;9296;48.084;16.352;2023-04-06T06:41:25;7.78;;;5.50;;
18340;SDS011;9296;48.084;16.352;2023-04-06T06:43:52;7.68;;;5.28;;
18340;SDS011;9296;48.084;16.352;2023-04-06T06:46:19;9.10;;;5.70;;
18340;SDS011;9296;48.084;16.352;2023-04-06T06:48:48;7.15;;;5.45;;
18340;SDS011;9296;48.084;16.352;2023-04-06T06:51:15;10.40;;;5.63;;
18340;SDS011;9296;48.084;16.352;2023-04-06T06:53:43;7.25;;;5.57;;
18340;SDS011;9296;48.084;16.352;2023-04-06T06:56:10;6.00;;;5.07;;
18340;SDS011;9296;48.084;16.352;2023-04-06T06:58:37;6.90;;;5.38;;
18340;SDS011;9296;48.084;16.352;2023-04-06T07:01:05;7.70;;;5.70;;
18340;SDS011;9296;48.084;16.352;2023-04-06T07:03:32;6.32;;;5.15;;
18340;SDS011;9296;48.084;16.352;2023-04-06T07:06:01;6.35;;;5.18;;
18340;SDS011;9296;48.084;16.352;2023-04-06T07:08:28;6.85;;;5.43;;
18340;SDS011;9296;48.084;16.352;2023-04-06T07:10:55;10.15;;;5.70;;
18340;SDS011;9296;48.084;16.352;2023-04-06T07:13:23;9.25;;;5.85;;
18340;SDS011;9296;48.084;16.352;2023-04-06T07:15:52;7.15;;;5.80;;
18340;SDS011;9296;48.084;16.352;2023-04-06T07:18:19;18.42;;;6.32;;
18340;SDS011;9296;48.084;16.352;2023-04-06T07:20:47;7.07;;;5.80;;
18340;SDS011;9296;48.084;16.352;2023-04-06T07:23:16;9.15;;;6.55;;
18340;SDS011;9296;48.084;16.352;2023-04-06T07:28:47;10.05;;;6.18;;
18340;SDS011;9296;48.084;16.352;2023-04-06T07:31:15;8.15;;;5.75;;
18340;SDS011;9296;48.084;16.352;2023-04-06T07:33:42;6.85;;;5.78;;
18340;SDS011;9296;48.084;16.352;2023-04-06T07:36:10;7.32;;;5.63;;
18340;SDS011;9296;48.084;16.352;2023-04-06T07:38:39;9.25;;;5.90;;
18340;SDS011;9296;48.084;16.352;2023-04-06T07:43:51;8.23;;;5.75;;
18340;SDS011;9296;48.084;16.352;2023-04-06T07:46:19;9.63;;;5.70;;
18340;SDS011;9296;48.084;16.352;2023-04-06T07:48:46;6.22;;;5.57;;
18340;SDS011;9296;48.084;16.352;2023-04-06T07:51:15;8.48;;;5.90;;
18340;SDS011;9296;48.084;16.352;2023-04-06T07:53:44;6.90;;;5.28;;
18340;SDS011;9296;48.084;16.352;2023-04-06T07:56:11;7.28;;;5.72;;
18340;SDS011;9296;48.084;16.352;2023-04-06T07:58:40;6.55;;;4.70;;
18340;SDS011;9296;48.084;16.352;2023-04-06T08:01:07;5.45;;;4.35;;
18340;SDS011;9296;48.084;16.352;2023-04-06T08:03:34;5.35;;;4.55;;
18340;SDS011;9296;48.084;16.352;2023-04-06T08:06:02;7.28;;;4.65;;
18340;SDS011;9296;48.084;16.352;2023-04-06T08:08:30;8.32;;;5.00;;
18340;SDS011;9296;48.084;16.352;2023-04-06T08:10:59;5.35;;;4.10;;
18340;SDS011;9296;48.084;16.352;2023-04-06T08:13:27;4.68;;;3.97;;
18340;SDS011;9296;48.084;16.352;2023-04-06T08:15:55;4.50;;;3.55;;
18340;SDS011;9296;48.084;16.352;2023-04-06T08:18:23;5.68;;;4.00;;
18340;SDS011;9296;48.084;16.352;2023-04-06T08:20:50;5.63;;;4.38;;
18340;SDS011;9296;48.084;16.352;2023-04-06T08:23:17;5.35;;;4.10;;
18340;SDS011;9296;48.084;16.352;2023-04-06T08:25:44;4.28;;;3.72;;
18340;SDS011;9296;48.084;16.352;2023-04-06T08:28:13;5.32;;;4.15;;
18340;SDS011;9296;48.084;16.352;2023-04-06T08:30:41;7.45;;;3.80;;
18340;SDS011;9296;48.084;16.352;2023-04-06T08:33:08;4.03;;;3.38;;
18340;SDS011;9296;48.084;16.352;2023-04-06T08:35:36;5.78;;;3.63;;
18340;SDS011;9296;48.084;16.352;2023-04-06T08:38:03;5.20;;;3.90;;
18340;SDS011;9296;48.084;16.352;2023-04-06T08:40:46;4.43;;;3.35;;
18340;SDS011;9296;48.084;16.352;2023-04-06T08:43:17;5.40;;;3.80;;
18340;SDS011;9296;48.084;16.352;2023-04-06T08:45:48;7.40;;;3.70;;
18340;SDS011;9296;48.084;16.352;2023-04-06T08:48:15;6.13;;;4.20;;
18340;SDS011;9296;48.084;16.352;2023-04-06T08:50:43;5.85;;;4.00;;
18340;SDS011;9296;48.084;16.352;2023-04-06T08:53:11;4.53;;;3.75;;
18340;SDS011;9296;48.084;16.352;2023-04-06T08:58:35;4.38;;;3.53;;
18340;SDS011;9296;48.084;16.352;2023-04-06T09:01:06;4.53;;;3.67;;
18340;SDS011;9296;48.084;16.352;2023-04-06T09:03:35;5.20;;;3.58;;
18340;SDS011;9296;48.084;16.352;2023-04-06T09:06:04;6.55;;;3.38;;
18340;SDS011;9296;48.084;16.352;2023-04-06T09:08:32;3.97;;;3.58;;
18340;SDS011;9296;48.084;16.352;2023-04-06T09:11:00;4.53;;;3.80;;
18340;SDS011;9296;48.084;16.352;2023-04-06T09:13:27;4.38;;;3.70;;
18340;SDS011;9296;48.084;16.352;2023-04-06T09:16:02;4.00;;;3.60;;
18340;SDS011;9296;48.084;16.352;2023-04-06T09:18:30;5.13;;;3.70;;
18340;SDS011;9296;48.084;16.352;2023-04-06T09:20:58;5.18;;;4.00;;
18340;SDS011;9296;48.084;16.352;2023-04-06T09:23:26;4.90;;;3.55;;
18340;SDS011;9296;48.084;16.352;2023-04-06T09:26:04;5.43;;;4.10;;
18340;SDS011;9296;48.084;16.352;2023-04-06T09:28:40;5.47;;;4.05;;
18340;SDS011;9296;48.084;16.352;2023-04-06T09:31:09;4.35;;;3.88;;
18340;SDS011;9296;48.084;16.352;2023-04-06T09:33:37;4.55;;;3.72;;
18340;SDS011;9296;48.084;16.352;2023-04-06T09:36:05;4.95;;;3.88;;
18340;SDS011;9296;48.084;16.352;2023-04-06T09:38:34;6.40;;;4.15;;
18340;SDS011;9296;48.084;16.352;2023-04-06T09:41:01;7.05;;;4.30;;
18340;SDS011;9296;48.084;16.352;2023-04-06T09:43:29;6.13;;;4.43;;
18340;SDS011;9296;48.084;16.352;2023-04-06T09:45:56;6.80;;;4.18;;
18340;SDS011;9296;48.084;16.352;2023-04-06T09:48:25;5.72;;;3.78;;
18340;SDS011;9296;48.084;16.352;2023-04-06T09:50:54;5.15;;;3.70;;
18340;SDS011;9296;48.084;16.352;2023-04-06T09:53:24;5.10;;;4.18;;
18340;SDS011;9296;48.084;16.352;2023-04-06T09:55:57;5.07;;;4.25;;
18340;SDS011;9296;48.084;16.352;2023-04-06T09:58:24;4.78;;;4.28;;
18340;SDS011;9296;48.084;16.352;2023-04-06T10:00:54;6.85;;;4.00;;
18340;SDS011;9296;48.084;16.352;2023-04-06T10:03:36;6.47;;;4.32;;
18340;SDS011;9296;48.084;16.352;2023-04-06T10:06:05;6.22;;;3.88;;
18340;SDS011;9296;48.084;16.352;2023-04-06T10:08:33;4.75;;;3.75;;
18340;SDS011;9296;48.084;16.352;2023-04-06T10:11:02;4.15;;;3.50;;
18340;SDS011;9296;48.084;16.352;2023-04-06T10:13:30;4.15;;;3.00;;
18340;SDS011;9296;48.084;16.352;2023-04-06T10:15:57;7.85;;;3.00;;
18340;SDS011;9296;48.084;16.352;2023-04-06T10:18:28;5.00;;;2.90;;
18340;SDS011;9296;48.084;16.352;2023-04-06T10:20:56;4.90;;;3.38;;
18340;SDS011;9296;48.084;16.352;2023-04-06T10:23:26;4.07;;;2.97;;
18340;SDS011;9296;48.084;16.352;2023-04-06T10:25:57;4.07;;;2.70;;
18340;SDS011;9296;48.084;16.352;2023-04-06T10:28:24;4.53;;;3.63;;
18340;SDS011;9296;48.084;16.352;2023-04-06T10:30:56;5.57;;;3.00;;
18340;SDS011;9296;48.084;16.352;2023-04-06T10:33:24;4.95;;;3.03;;
18340;SDS011;9296;48.084;16.352;2023-04-06T10:35:52;4.55;;;3.10;;
18340;SDS011;9296;48.084;16.352;2023-04-06T10:38:20;4.35;;;3.00;;
18340;SDS011;9296;48.084;16.352;2023-04-06T10:41:03;4.38;;;2.92;;
18340;SDS011;9296;48.084;16.352;2023-04-06T10:43:33;4.28;;;3.28;;
18340;SDS011;9296;48.084;16.352;2023-04-06T10:46:01;3.50;;;2.80;;
18340;SDS011;9296;48.084;16.352;2023-04-06T10:48:36;3.42;;;2.88;;
18340;SDS011;9296;48.084;16.352;2023-04-06T10:51:08;7.15;;;2.88;;
18340;SDS011;9296;48.084;16.352;2023-04-06T10:53:36;3.33;;;2.75;;
18340;SDS011;9296;48.084;16.352;2023-04-06T10:56:04;4.68;;;3.10;;
18340;SDS011;9296;48.084;16.352;2023-04-06T10:58:31;5.20;;;3.28;;
18340;SDS011;9296;48.084;16.352;2023-04-06T11:00:59;4.10;;;3.28;;
18340;SDS011;9296;48.084;16.352;2023-04-06T11:03:26;4.32;;;3.30;;
18340;SDS011;9296;48.084;16.352;2023-04-06T11:05:53;3.80;;;3.10;;
18340;SDS011;9296;48.084;16.352;2023-04-06T11:08:30;5.55;;;3.00;;
18340;SDS011;9296;48.084;16.352;2023-04-06T11:11:04;4.05;;;3.00;;
18340;SDS011;9296;48.084;16.352;2023-04-06T11:13:39;3.45;;;3.00;;
18340;SDS011;9296;48.084;16.352;2023-04-06T11:16:07;6.20;;;3.30;;
18340;SDS011;9296;48.084;16.352;2023-04-06T11:18:46;4.93;;;3.40;;
18340;SDS011;9296;48.084;16.352;2023-04-06T11:21:13;4.30;;;3.08;;
18340;SDS011;9296;48.084;16.352;2023-04-06T11:23:42;3.55;;;3.08;;
18340;SDS011;9296;48.084;16.352;2023-04-06T11:26:10;5.63;;;3.40;;
18340;SDS011;9296;48.084;16.352;2023-04-06T11:28:38;3.55;;;3.10;;
18340;SDS011;9296;48.084;16.352;2023-04-06T11:31:05;3.78;;;3.03;;
18340;SDS011;9296;48.084;16.352;2023-04-06T11:33:35;4.47;;;3.55;;
18340;SDS011;9296;48.084;16.352;2023-04-06T11:36:03;5.53;;;3.22;;
18340;SDS011;9296;48.084;16.352;2023-04-06T11:38:30;5.13;;;3.17;;
18340;SDS011;9296;48.084;16.352;2023-04-06T11:41:08;4.18;;;3.78;;
18340;SDS011;9296;48.084;16.352;2023-04-06T11:43:35;3.90;;;2.97;;
18340;SDS011;9296;48.084;16.352;2023-04-06T11:46:03;4.70;;;3.53;;
18340;SDS011;9296;48.084;16.352;2023-04-06T11:48:43;4.22;;;3.13;;
18340;SDS011;9296;48.084;16.352;2023-04-06T11:51:10;5.72;;;3.60;;
18340;SDS011;9296;48.084;16.352;2023-04-06T11:53:43;3.40;;;2.78;;
18340;SDS011;9296;48.084;16.352;2023-04-06T11:56:21;4.05;;;2.97;;
18340;SDS011;9296;48.084;16.352;2023-04-06T11:58:49;4.72;;;2.83;;
18340;SDS011;9296;48.084;16.352;2023-04-06T12:01:16;3.80;;;2.63;;
18340;SDS011;9296;48.084;16.352;2023-04-06T12:03:43;3.75;;;2.78;;
18340;SDS011;9296;48.084;16.352;2023-04-06T12:06:11;4.35;;;2.92;;
18340;SDS011;9296;48.084;16.352;2023-04-06T12:08:38;4.43;;;3.30;;
18340;SDS011;9296;48.084;16.352;2023-04-06T12:11:10;4.00;;;2.65;;
18340;SDS011;9296;48.084;16.352;2023-04-06T12:13:39;3.70;;;2.70;;
18340;SDS011;9296;48.084;16.352;2023-04-06T12:16:07;6.05;;;2.90;;
18340;SDS011;9296;48.084;16.352;2023-04-06T12:18:34;4.57;;;2.83;;
18340;SDS011;9296;48.084;16.352;2023-04-06T12:21:01;9.98;;;3.33;;
18340;SDS011;9296;48.084;16.352;2023-04-06T12:23:30;4.75;;;3.20;;
18340;SDS011;9296;48.084;16.352;2023-04-06T12:25:57;3.42;;;3.05;;
18340;SDS011;9296;48.084;16.352;2023-04-06T12:28:25;7.72;;;3.30;;
18340;SDS011;9296;48.084;16.352;2023-04-06T12:30:54;3.63;;;2.90;;
18340;SDS011;9296;48.084;16.352;2023-04-06T12:33:21;5.68;;;3.15;;
18340;SDS011;9296;48.084;16.352;2023-04-06T12:35:49;5.32;;;3.10;;
18340;SDS011;9296;48.084;16.352;2023-04-06T12:38:16;6.45;;;3.53;;
18340;SDS011;9296;48.084;16.352;2023-04-06T12:40:43;4.03;;;3.15;;
18340;SDS011;9296;48.084;16.352;2023-04-06T12:45:59;5.00;;;3.20;;
18340;SDS011;9296;48.084;16.352;2023-04-06T12:48:26;4.55;;;3.38;;
18340;SDS011;9296;48.084;16.352;2023-04-06T12:50:54;4.43;;;3.20;;
18340;SDS011;9296;48.084;16.352;2023-04-06T12:53:21;5.85;;;3.03;;
18340;SDS011;9296;48.084;16.352;2023-04-06T12:55:49;6.10;;;3.42;;
18340;SDS011;9296;48.084;16.352;2023-04-06T12:58:16;8.25;;;3.80;;
18340;SDS011;9296;48.084;16.352;2023-04-06T13:00:44;4.18;;;3.28;;
18340;SDS011;9296;48.084;16.352;2023-04-06T13:03:12;5.32;;;3.35;;
18340;SDS011;9296;48.084;16.352;2023-04-06T13:05:43;3.90;;;2.88;;
18340;SDS011;9296;48.084;16.352;2023-04-06T13:08:10;5.35;;;3.00;;
18340;SDS011;9296;48.084;16.352;2023-04-06T13:10:38;3.92;;;3.20;;
18340;SDS011;9296;48.084;16.352;2023-04-06T13:13:22;3.35;;;3.03;;
18340;SDS011;9296;48.084;16.352;2023-04-06T13:15:49;3.10;;;2.80;;
18340;SDS011;9296;48.084;16.352;2023-04-06T13:18:18;3.53;;;2.90;;
18340;SDS011;9296;48.084;16.352;2023-04-06T13:20:46;3.25;;;2.88;;
18340;SDS011;9296;48.084;16.352;2023-04-06T13:23:15;3.90;;;3.13;;
18340;SDS011;9296;48.084;16.352;2023-04-06T13:25:42;4.13;;;2.97;;
18340;SDS011;9296;48.084;16.352;2023-04-06T13:28:10;4.47;;;2.97;;
18340;SDS011;9296;48.084;16.352;2023-04-06T13:30:37;4.15;;;2.95;;
18340;SDS011;9296;48.084;16.352;2023-04-06T13:33:04;4.00;;;3.00;;
18340;SDS011;9296;48.084;16.352;2023-04-06T13:35:33;5.10;;;3.15;;
18340;SDS011;9296;48.084;16.352;2023-04-06T13:38:00;5.57;;;3.17;;
18340;SDS011;9296;48.084;16.352;2023-04-06T13:40:27;5.57;;;3.55;;
18340;SDS011;9296;48.084;16.352;2023-04-06T13:42:55;6.40;;;3.38;;
18340;SDS011;9296;48.084;16.352;2023-04-06T13:45:22;5.95;;;3.67;;
18340;SDS011;9296;48.084;16.352;2023-04-06T13:47:49;5.22;;;3.85;;
18340;SDS011;9296;48.084;16.352;2023-04-06T13:50:17;7.75;;;3.25;;
18340;SDS011;9296;48.084;16.352;2023-04-06T13:52:45;8.25;;;3.30;;
18340;SDS011;9296;48.084;16.352;2023-04-06T13:55:14;5.03;;;3.30;;
18340;SDS011;9296;48.084;16.352;2023-04-06T13:57:41;3.80;;;3.28;;
18340;SDS011;9296;48.084;16.352;2023-04-06T14:00:09;6.43;;;3.70;;
18340;SDS011;9296;48.084;16.352;2023-04-06T14:02:37;5.13;;;3.60;;
18340;SDS011;9296;48.084;16.352;2023-04-06T14:05:05;4.75;;;3.35;;
18340;SDS011;9296;48.084;16.352;2023-04-06T14:07:32;6.03;;;3.97;;
18340;SDS011;9296;48.084;16.352;2023-04-06T14:10:01;4.07;;;3.53;;
18340;SDS011;9296;48.084;16.352;2023-04-06T14:12:28;5.10;;;3.63;;
18340;SDS011;9296;48.084;16.352;2023-04-06T14:14:56;4.43;;;3.30;;
18340;SDS011;9296;48.084;16.352;2023-04-06T14:17:23;4.65;;;3.75;;
18340;SDS011;9296;48.084;16.352;2023-04-06T14:19:51;4.40;;;3.20;;
18340;SDS011;9296;48.084;16.352;2023-04-06T14:22:18;4.18;;;3.55;;
18340;SDS011;9296;48.084;16.352;2023-04-06T14:24:45;4.68;;;3.55;;
18340;SDS011;9296;48.084;16.352;2023-04-06T14:27:32;4.47;;;3.13;;
18340;SDS011;9296;48.084;16.352;2023-04-06T14:29:59;5.85;;;3.45;;
18340;SDS011;9296;48.084;16.352;2023-04-06T14:32:26;4.68;;;3.42;;
18340;SDS011;9296;48.084;16.352;2023-04-06T14:34:54;4.97;;;3.60;;
18340;SDS011;9296;48.084;16.352;2023-04-06T14:37:21;4.53;;;3.25;;
18340;SDS011;9296;48.084;16.352;2023-04-06T14:39:48;4.40;;;3.38;;
18340;SDS011;9296;48.084;16.352;2023-04-06T14:42:35;6.93;;;3.50;;
18340;SDS011;9296;48.084;16.352;2023-04-06T14:45:02;5.95;;;3.88;;
18340;SDS011;9296;48.084;16.352;2023-04-06T14:47:31;6.05;;;3.38;;
18340;SDS011;9296;48.084;16.352;2023-04-06T14:49:58;4.38;;;3.10;;
18340;SDS011;9296;48.084;16.352;2023-04-06T14:52:25;6.07;;;3.05;;
18340;SDS011;9296;48.084;16.352;2023-04-06T14:54:52;4.32;;;3.40;;
18340;SDS011;9296;48.084;16.352;2023-04-06T14:57:20;5.15;;;3.60;;
18340;SDS011;9296;48.084;16.352;2023-04-06T14:59:48;4.25;;;3.58;;
18340;SDS011;9296;48.084;16.352;2023-04-06T15:02:15;6.32;;;3.80;;
18340;SDS011;9296;48.084;16.352;2023-04-06T15:04:43;3.95;;;3.55;;
18340;SDS011;9296;48.084;16.352;2023-04-06T15:07:10;4.18;;;3.67;;
18340;SDS011;9296;48.084;16.352;2023-04-06T15:09:37;5.05;;;3.72;;
18340;SDS011;9296;48.084;16.352;2023-04-06T15:12:04;5.95;;;4.43;;
18340;SDS011;9296;48.084;16.352;2023-04-06T15:14:31;6.20;;;3.97;;
18340;SDS011;9296;48.084;16.352;2023-04-06T15:17:00;5.97;;;3.92;;
18340;SDS011;9296;48.084;16.352;2023-04-06T15:19:27;7.80;;;4.70;;
18340;SDS011;9296;48.084;16.352;2023-04-06T15:21:54;5.43;;;3.90;;
18340;SDS011;9296;48.084;16.352;2023-04-06T15:24:21;4.78;;;3.50;;
18340;SDS011;9296;48.084;16.352;2023-04-06T15:26:49;5.03;;;3.95;;
18340;SDS011;9296;48.084;16.352;2023-04-06T15:29:16;3.97;;;3.40;;
18340;SDS011;9296;48.084;16.352;2023-04-06T15:31:43;5.88;;;3.70;;
18340;SDS011;9296;48.084;16.352;2023-04-06T15:34:12;3.83;;;3.30;;
18340;SDS011;9296;48.084;16.352;2023-04-06T15:36:39;3.47;;;3.08;;
18340;SDS011;9296;48.084;16.352;2023-04-06T15:39:08;5.93;;;3.58;;